sensor_id;sensor_type;location;lat;lon;timestamp;temperature;humidity
21612;DHT22;47005;52.292;13.452;2023-07-09T00:01:56;21.90;71.90
21612;DHT22;47005;52.292;13.452;2023-07-09T00:04:22;21.90;71.90
21612;DHT22;47005;52.292;13.452;2023-07-09T00:06:48;21.80;72.20
21612;DHT22;47005;52.292;13.452;2023-07-09T00:09:15;21.80;72.20
21612;DHT22;47005;52.292;13.452;2023-07-09T00:11:42;21.80;72.50
21612;DHT22;47005;52.292;13.452;2023-07-09T00:14:10;21.70;73.50
21612;DHT22;47005;52.292;13.452;2023-07-09T00:16:37;21.70;74.10
21612;DHT22;47005;52.292;13.452;2023-07-09T00:19:04;21.60;75.10
21612;DHT22;47005;52.292;13.452;2023-07-09T00:21:30;21.60;74.30
21612;DHT22;47005;52.292;13.452;2023-07-09T00:24:00;21.60;74.20
21612;DHT22;47005;52.292;13.452;2023-07-09T00:26:31;21.50;73.80
21612;DHT22;47005;52.292;13.452;2023-07-09T00:28:58;21.50;73.70
21612;DHT22;47005;52.292;13.452;2023-07-09T00:31:24;21.40;74.30
21612;DHT22;47005;52.292;13.452;2023-07-09T00:33:50;21.40;74.40
21612;DHT22;47005;52.292;13.452;2023-07-09T00:36:25;21.40;75.00
21612;DHT22;47005;52.292;13.452;2023-07-09T00:38:51;21.40;75.30
21612;DHT22;47005;52.292;13.452;2023-07-09T00:41:19;21.30;75.30
21612;DHT22;47005;52.292;13.452;2023-07-09T00:43:47;21.20;76.30
21612;DHT22;47005;52.292;13.452;2023-07-09T00:48:57;21.20;76.10
21612;DHT22;47005;52.292;13.452;2023-07-09T00:51:23;21.10;76.10
21612;DHT22;47005;52.292;13.452;2023-07-09T00:53:53;21.10;76.40
21612;DHT22;47005;52.292;13.452;2023-07-09T00:56:39;21.10;76.50
21612;DHT22;47005;52.292;13.452;2023-07-09T00:59:11;21.00;76.30
21612;DHT22;47005;52.292;13.452;2023-07-09T01:01:38;20.90;76.40
21612;DHT22;47005;52.292;13.452;2023-07-09T01:04:08;20.90;76.80
21612;DHT22;47005;52.292;13.452;2023-07-09T01:06:43;20.90;76.90
21612;DHT22;47005;52.292;13.452;2023-07-09T01:09:09;20.80;76.60
21612;DHT22;47005;52.292;13.452;2023-07-09T01:11:35;20.80;77.10
21612;DHT22;47005;52.292;13.452;2023-07-09T01:14:05;20.80;76.90
21612;DHT22;47005;52.292;13.452;2023-07-09T01:16:39;20.70;76.70
21612;DHT22;47005;52.292;13.452;2023-07-09T01:19:06;20.70;76.80
21612;DHT22;47005;52.292;13.452;2023-07-09T01:21:32;20.70;77.10
21612;DHT22;47005;52.292;13.452;2023-07-09T01:23:58;20.60;77.20
21612;DHT22;47005;52.292;13.452;2023-07-09T01:26:26;20.60;77.10
21612;DHT22;47005;52.292;13.452;2023-07-09T01:28:53;20.60;77.20
21612;DHT22;47005;52.292;13.452;2023-07-09T01:31:20;20.50;77.80
21612;DHT22;47005;52.292;13.452;2023-07-09T01:33:49;20.50;77.50
21612;DHT22;47005;52.292;13.452;2023-07-09T01:36:20;20.50;77.30
21612;DHT22;47005;52.292;13.452;2023-07-09T01:38:50;20.40;77.50
21612;DHT22;47005;52.292;13.452;2023-07-09T01:41:16;20.40;77.40
21612;DHT22;47005;52.292;13.452;2023-07-09T01:43:43;20.40;77.90
21612;DHT22;47005;52.292;13.452;2023-07-09T01:46:10;20.40;77.90
21612;DHT22;47005;52.292;13.452;2023-07-09T01:48:38;20.30;77.90
21612;DHT22;47005;52.292;13.452;2023-07-09T01:51:11;20.30;77.90
21612;DHT22;47005;52.292;13.452;2023-07-09T01:53:38;20.30;78.00
21612;DHT22;47005;52.292;13.452;2023-07-09T01:56:04;20.30;78.20
21612;DHT22;47005;52.292;13.452;2023-07-09T01:58:33;20.30;78.40
21612;DHT22;47005;52.292;13.452;2023-07-09T02:00:59;20.20;78.40
21612;DHT22;47005;52.292;13.452;2023-07-09T02:03:25;20.20;78.60
21612;DHT22;47005;52.292;13.452;2023-07-09T02:05:53;20.20;78.70
21612;DHT22;47005;52.292;13.452;2023-07-09T02:08:19;20.20;79.50
21612;DHT22;47005;52.292;13.452;2023-07-09T02:10:47;20.10;79.00
21612;DHT22;47005;52.292;13.452;2023-07-09T02:13:13;20.10;79.20
21612;DHT22;47005;52.292;13.452;2023-07-09T02:15:39;20.10;79.80
21612;DHT22;47005;52.292;13.452;2023-07-09T02:18:09;20.10;79.80
21612;DHT22;47005;52.292;13.452;2023-07-09T02:20:34;20.00;80.10
21612;DHT22;47005;52.292;13.452;2023-07-09T02:23:00;20.00;80.20
21612;DHT22;47005;52.292;13.452;2023-07-09T02:25:26;20.00;80.10
21612;DHT22;47005;52.292;13.452;2023-07-09T02:27:51;20.00;80.30
21612;DHT22;47005;52.292;13.452;2023-07-09T02:30:17;20.00;80.50
21612;DHT22;47005;52.292;13.452;2023-07-09T02:32:43;19.90;80.10
21612;DHT22;47005;52.292;13.452;2023-07-09T02:35:08;19.90;80.10
21612;DHT22;47005;52.292;13.452;2023-07-09T02:37:34;19.90;80.60
21612;DHT22;47005;52.292;13.452;2023-07-09T02:40:00;19.90;80.50
21612;DHT22;47005;52.292;13.452;2023-07-09T02:42:26;19.80;80.50
21612;DHT22;47005;52.292;13.452;2023-07-09T02:44:51;19.80;80.70
21612;DHT22;47005;52.292;13.452;2023-07-09T02:47:18;19.80;81.00
21612;DHT22;47005;52.292;13.452;2023-07-09T02:49:44;19.80;80.80
21612;DHT22;47005;52.292;13.452;2023-07-09T02:52:10;19.70;80.90
21612;DHT22;47005;52.292;13.452;2023-07-09T02:54:36;19.70;80.90
21612;DHT22;47005;52.292;13.452;2023-07-09T02:57:02;19.70;81.10
21612;DHT22;47005;52.292;13.452;2023-07-09T02:59:28;19.70;80.90
21612;DHT22;47005;52.292;13.452;2023-07-09T03:01:55;19.60;81.20
21612;DHT22;47005;52.292;13.452;2023-07-09T03:04:20;19.60;81.20
21612;DHT22;47005;52.292;13.452;2023-07-09T03:06:46;19.60;81.30
21612;DHT22;47005;52.292;13.452;2023-07-09T03:09:12;19.60;81.40
21612;DHT22;47005;52.292;13.452;2023-07-09T03:11:38;19.60;81.70
21612;DHT22;47005;52.292;13.452;2023-07-09T03:14:04;19.60;81.70
21612;DHT22;47005;52.292;13.452;2023-07-09T03:16:32;19.50;81.70
21612;DHT22;47005;52.292;13.452;2023-07-09T03:18:59;19.50;81.60
21612;DHT22;47005;52.292;13.452;2023-07-09T03:21:29;19.50;81.70
21612;DHT22;47005;52.292;13.452;2023-07-09T03:23:55;19.50;81.60
21612;DHT22;47005;52.292;13.452;2023-07-09T03:26:20;19.40;81.60
21612;DHT22;47005;52.292;13.452;2023-07-09T03:28:47;19.40;81.90
21612;DHT22;47005;52.292;13.452;2023-07-09T03:31:12;19.40;81.70
21612;DHT22;47005;52.292;13.452;2023-07-09T03:33:38;19.40;82.30
21612;DHT22;47005;52.292;13.452;2023-07-09T03:36:04;19.40;82.60
21612;DHT22;47005;52.292;13.452;2023-07-09T03:38:31;19.40;82.80
21612;DHT22;47005;52.292;13.452;2023-07-09T03:40:56;19.40;84.70
21612;DHT22;47005;52.292;13.452;2023-07-09T03:43:23;19.40;83.60
21612;DHT22;47005;52.292;13.452;2023-07-09T03:45:49;19.40;83.00
21612;DHT22;47005;52.292;13.452;2023-07-09T03:48:16;19.40;83.20
21612;DHT22;47005;52.292;13.452;2023-07-09T03:50:44;19.40;83.30
21612;DHT22;47005;52.292;13.452;2023-07-09T03:53:10;19.40;83.20
21612;DHT22;47005;52.292;13.452;2023-07-09T03:55:36;19.40;83.20
21612;DHT22;47005;52.292;13.452;2023-07-09T03:58:03;19.30;83.20
21612;DHT22;47005;52.292;13.452;2023-07-09T04:00:30;19.30;83.30
21612;DHT22;47005;52.292;13.452;2023-07-09T04:02:55;19.30;83.60
21612;DHT22;47005;52.292;13.452;2023-07-09T04:05:24;19.30;83.80
21612;DHT22;47005;52.292;13.452;2023-07-09T04:07:50;19.30;84.30
21612;DHT22;47005;52.292;13.452;2023-07-09T04:10:16;19.30;84.00
21612;DHT22;47005;52.292;13.452;2023-07-09T04:12:42;19.30;84.40
21612;DHT22;47005;52.292;13.452;2023-07-09T04:15:09;19.30;85.60
21612;DHT22;47005;52.292;13.452;2023-07-09T04:17:35;19.40;85.30
21612;DHT22;47005;52.292;13.452;2023-07-09T04:20:01;19.30;84.40
21612;DHT22;47005;52.292;13.452;2023-07-09T04:22:31;19.40;84.20
21612;DHT22;47005;52.292;13.452;2023-07-09T04:24:57;19.40;84.00
21612;DHT22;47005;52.292;13.452;2023-07-09T04:27:23;19.40;84.20
21612;DHT22;47005;52.292;13.452;2023-07-09T04:29:53;19.40;84.00
21612;DHT22;47005;52.292;13.452;2023-07-09T04:32:19;19.40;83.90
21612;DHT22;47005;52.292;13.452;2023-07-09T04:34:45;19.40;84.00
21612;DHT22;47005;52.292;13.452;2023-07-09T04:37:11;19.40;85.10
21612;DHT22;47005;52.292;13.452;2023-07-09T04:39:38;19.40;84.60
21612;DHT22;47005;52.292;13.452;2023-07-09T04:42:05;19.40;84.60
21612;DHT22;47005;52.292;13.452;2023-07-09T04:44:30;19.50;84.30
21612;DHT22;47005;52.292;13.452;2023-07-09T04:46:56;19.50;84.30
21612;DHT22;47005;52.292;13.452;2023-07-09T04:49:22;19.50;83.90
21612;DHT22;47005;52.292;13.452;2023-07-09T04:51:48;19.50;84.70
21612;DHT22;47005;52.292;13.452;2023-07-09T04:54:14;19.50;83.70
21612;DHT22;47005;52.292;13.452;2023-07-09T04:56:41;19.60;83.90
21612;DHT22;47005;52.292;13.452;2023-07-09T04:59:10;19.60;84.30
21612;DHT22;47005;52.292;13.452;2023-07-09T05:01:36;19.60;84.00
21612;DHT22;47005;52.292;13.452;2023-07-09T05:04:02;19.60;84.60
21612;DHT22;47005;52.292;13.452;2023-07-09T05:06:28;19.60;84.50
21612;DHT22;47005;52.292;13.452;2023-07-09T05:08:53;19.70;84.70
21612;DHT22;47005;52.292;13.452;2023-07-09T05:11:19;19.70;84.30
21612;DHT22;47005;52.292;13.452;2023-07-09T05:13:44;19.70;84.20
21612;DHT22;47005;52.292;13.452;2023-07-09T05:16:12;19.70;84.80
21612;DHT22;47005;52.292;13.452;2023-07-09T05:18:38;19.80;84.10
21612;DHT22;47005;52.292;13.452;2023-07-09T05:21:04;19.80;84.50
21612;DHT22;47005;52.292;13.452;2023-07-09T05:23:30;19.80;84.60
21612;DHT22;47005;52.292;13.452;2023-07-09T05:25:58;19.80;84.40
21612;DHT22;47005;52.292;13.452;2023-07-09T05:28:25;19.90;84.80
21612;DHT22;47005;52.292;13.452;2023-07-09T05:30:51;19.90;84.20
21612;DHT22;47005;52.292;13.452;2023-07-09T05:33:18;19.90;84.20
21612;DHT22;47005;52.292;13.452;2023-07-09T05:35:46;19.90;84.50
21612;DHT22;47005;52.292;13.452;2023-07-09T05:38:13;19.90;84.30
21612;DHT22;47005;52.292;13.452;2023-07-09T05:40:39;20.00;84.30
21612;DHT22;47005;52.292;13.452;2023-07-09T05:43:05;20.00;85.10
21612;DHT22;47005;52.292;13.452;2023-07-09T05:45:31;20.10;84.70
21612;DHT22;47005;52.292;13.452;2023-07-09T05:48:01;20.10;84.40
21612;DHT22;47005;52.292;13.452;2023-07-09T05:50:28;20.10;84.50
21612;DHT22;47005;52.292;13.452;2023-07-09T05:52:54;20.20;85.30
21612;DHT22;47005;52.292;13.452;2023-07-09T05:55:19;20.20;85.30
21612;DHT22;47005;52.292;13.452;2023-07-09T05:57:46;20.20;85.00
21612;DHT22;47005;52.292;13.452;2023-07-09T06:00:12;20.30;85.80
21612;DHT22;47005;52.292;13.452;2023-07-09T06:02:38;20.30;85.00
21612;DHT22;47005;52.292;13.452;2023-07-09T06:05:04;20.40;84.90
21612;DHT22;47005;52.292;13.452;2023-07-09T06:07:30;20.40;85.30
21612;DHT22;47005;52.292;13.452;2023-07-09T06:09:56;20.50;85.40
21612;DHT22;47005;52.292;13.452;2023-07-09T06:12:22;20.50;84.90
21612;DHT22;47005;52.292;13.452;2023-07-09T06:14:48;20.60;84.70
21612;DHT22;47005;52.292;13.452;2023-07-09T06:17:14;20.70;84.50
21612;DHT22;47005;52.292;13.452;2023-07-09T06:19:40;20.70;84.40
21612;DHT22;47005;52.292;13.452;2023-07-09T06:22:06;20.70;85.00
21612;DHT22;47005;52.292;13.452;2023-07-09T06:24:32;20.80;84.70
21612;DHT22;47005;52.292;13.452;2023-07-09T06:26:57;20.80;84.50
21612;DHT22;47005;52.292;13.452;2023-07-09T06:29:24;20.90;84.80
21612;DHT22;47005;52.292;13.452;2023-07-09T06:31:50;20.90;84.60
21612;DHT22;47005;52.292;13.452;2023-07-09T06:34:16;21.00;84.50
21612;DHT22;47005;52.292;13.452;2023-07-09T06:36:42;21.00;84.50
21612;DHT22;47005;52.292;13.452;2023-07-09T06:39:08;21.10;84.60
21612;DHT22;47005;52.292;13.452;2023-07-09T06:41:34;21.10;85.00
21612;DHT22;47005;52.292;13.452;2023-07-09T06:44:05;21.20;86.20
21612;DHT22;47005;52.292;13.452;2023-07-09T06:46:31;21.20;86.20
21612;DHT22;47005;52.292;13.452;2023-07-09T06:48:57;21.20;86.10
21612;DHT22;47005;52.292;13.452;2023-07-09T06:51:22;21.30;85.70
21612;DHT22;47005;52.292;13.452;2023-07-09T06:53:48;21.30;86.10
21612;DHT22;47005;52.292;13.452;2023-07-09T06:56:16;21.40;86.00
21612;DHT22;47005;52.292;13.452;2023-07-09T06:58:41;21.40;85.40
21612;DHT22;47005;52.292;13.452;2023-07-09T07:01:07;21.50;85.50
21612;DHT22;47005;52.292;13.452;2023-07-09T07:03:36;21.50;85.60
21612;DHT22;47005;52.292;13.452;2023-07-09T07:06:02;21.50;85.20
21612;DHT22;47005;52.292;13.452;2023-07-09T07:08:28;21.50;85.70
21612;DHT22;47005;52.292;13.452;2023-07-09T07:10:56;21.60;85.60
21612;DHT22;47005;52.292;13.452;2023-07-09T07:13:28;21.70;85.40
21612;DHT22;47005;52.292;13.452;2023-07-09T07:15:54;21.70;85.60
21612;DHT22;47005;52.292;13.452;2023-07-09T07:18:20;21.70;85.20
21612;DHT22;47005;52.292;13.452;2023-07-09T07:20:46;21.80;85.20
21612;DHT22;47005;52.292;13.452;2023-07-09T07:23:11;21.80;85.90
21612;DHT22;47005;52.292;13.452;2023-07-09T07:25:37;21.90;85.00
21612;DHT22;47005;52.292;13.452;2023-07-09T07:28:03;21.90;85.10
21612;DHT22;47005;52.292;13.452;2023-07-09T07:30:29;21.90;85.00
21612;DHT22;47005;52.292;13.452;2023-07-09T07:32:54;22.00;85.00
21612;DHT22;47005;52.292;13.452;2023-07-09T07:35:20;22.00;84.60
21612;DHT22;47005;52.292;13.452;2023-07-09T07:37:46;22.10;84.30
21612;DHT22;47005;52.292;13.452;2023-07-09T07:40:12;22.10;83.30
21612;DHT22;47005;52.292;13.452;2023-07-09T07:42:38;22.20;82.80
21612;DHT22;47005;52.292;13.452;2023-07-09T07:45:04;22.20;83.10
21612;DHT22;47005;52.292;13.452;2023-07-09T07:47:30;22.20;82.70
21612;DHT22;47005;52.292;13.452;2023-07-09T07:49:56;22.30;82.20
21612;DHT22;47005;52.292;13.452;2023-07-09T07:52:23;22.40;81.50
21612;DHT22;47005;52.292;13.452;2023-07-09T07:54:49;22.40;82.40
21612;DHT22;47005;52.292;13.452;2023-07-09T07:57:16;22.50;82.90
21612;DHT22;47005;52.292;13.452;2023-07-09T07:59:41;22.50;83.80
21612;DHT22;47005;52.292;13.452;2023-07-09T08:02:11;22.60;83.90
21612;DHT22;47005;52.292;13.452;2023-07-09T08:04:38;22.60;84.10
21612;DHT22;47005;52.292;13.452;2023-07-09T08:07:04;22.70;84.40
21612;DHT22;47005;52.292;13.452;2023-07-09T08:09:30;22.70;84.20
21612;DHT22;47005;52.292;13.452;2023-07-09T08:11:55;22.80;83.60
21612;DHT22;47005;52.292;13.452;2023-07-09T08:14:21;22.80;83.60
21612;DHT22;47005;52.292;13.452;2023-07-09T08:16:48;22.80;83.60
21612;DHT22;47005;52.292;13.452;2023-07-09T08:19:13;22.90;82.10
21612;DHT22;47005;52.292;13.452;2023-07-09T08:21:39;22.90;82.50
21612;DHT22;47005;52.292;13.452;2023-07-09T08:24:05;22.90;82.30
21612;DHT22;47005;52.292;13.452;2023-07-09T08:26:31;23.00;82.40
21612;DHT22;47005;52.292;13.452;2023-07-09T08:28:58;23.10;82.90
21612;DHT22;47005;52.292;13.452;2023-07-09T08:31:24;23.10;83.00
21612;DHT22;47005;52.292;13.452;2023-07-09T08:33:50;23.20;83.60
21612;DHT22;47005;52.292;13.452;2023-07-09T08:36:15;23.20;83.10
21612;DHT22;47005;52.292;13.452;2023-07-09T08:38:41;23.30;83.60
21612;DHT22;47005;52.292;13.452;2023-07-09T08:41:08;23.30;82.50
21612;DHT22;47005;52.292;13.452;2023-07-09T08:46:37;23.40;82.90
21612;DHT22;47005;52.292;13.452;2023-07-09T08:49:12;23.50;83.30
21612;DHT22;47005;52.292;13.452;2023-07-09T08:51:42;23.50;83.40
21612;DHT22;47005;52.292;13.452;2023-07-09T08:54:20;23.60;82.00
21612;DHT22;47005;52.292;13.452;2023-07-09T08:56:49;23.60;82.10
21612;DHT22;47005;52.292;13.452;2023-07-09T08:59:16;23.70;81.10
21612;DHT22;47005;52.292;13.452;2023-07-09T09:01:53;23.70;79.40
21612;DHT22;47005;52.292;13.452;2023-07-09T09:04:28;23.80;78.90
21612;DHT22;47005;52.292;13.452;2023-07-09T09:10:01;23.90;77.60
21612;DHT22;47005;52.292;13.452;2023-07-09T09:12:41;24.00;76.70
21612;DHT22;47005;52.292;13.452;2023-07-09T09:15:16;24.10;76.50
21612;DHT22;47005;52.292;13.452;2023-07-09T09:17:43;24.20;76.70
21612;DHT22;47005;52.292;13.452;2023-07-09T09:20:17;24.20;76.80
21612;DHT22;47005;52.292;13.452;2023-07-09T09:22:58;24.30;76.70
21612;DHT22;47005;52.292;13.452;2023-07-09T09:25:27;24.40;73.60
21612;DHT22;47005;52.292;13.452;2023-07-09T09:27:54;24.40;75.80
21612;DHT22;47005;52.292;13.452;2023-07-09T09:30:22;24.40;74.90
21612;DHT22;47005;52.292;13.452;2023-07-09T09:33:04;24.50;74.70
21612;DHT22;47005;52.292;13.452;2023-07-09T09:35:39;24.60;75.50
21612;DHT22;47005;52.292;13.452;2023-07-09T09:38:16;24.60;75.00
21612;DHT22;47005;52.292;13.452;2023-07-09T09:40:42;24.70;75.30
21612;DHT22;47005;52.292;13.452;2023-07-09T09:43:14;24.70;72.20
21612;DHT22;47005;52.292;13.452;2023-07-09T09:45:40;24.80;74.00
21612;DHT22;47005;52.292;13.452;2023-07-09T09:48:18;24.80;71.80
21612;DHT22;47005;52.292;13.452;2023-07-09T09:50:45;24.80;71.70
21612;DHT22;47005;52.292;13.452;2023-07-09T09:53:20;24.90;71.50
21612;DHT22;47005;52.292;13.452;2023-07-09T09:55:47;25.00;71.90
21612;DHT22;47005;52.292;13.452;2023-07-09T09:58:15;25.00;72.10
21612;DHT22;47005;52.292;13.452;2023-07-09T10:00:49;25.10;72.30
21612;DHT22;47005;52.292;13.452;2023-07-09T10:03:14;25.10;71.30
21612;DHT22;47005;52.292;13.452;2023-07-09T10:05:55;25.20;72.50
21612;DHT22;47005;52.292;13.452;2023-07-09T10:08:55;25.20;72.30
21612;DHT22;47005;52.292;13.452;2023-07-09T10:11:46;25.20;68.60
21612;DHT22;47005;52.292;13.452;2023-07-09T10:14:33;25.30;69.60
21612;DHT22;47005;52.292;13.452;2023-07-09T10:17:20;25.30;71.10
21612;DHT22;47005;52.292;13.452;2023-07-09T10:20:03;25.30;69.80
21612;DHT22;47005;52.292;13.452;2023-07-09T10:22:57;25.40;70.50
21612;DHT22;47005;52.292;13.452;2023-07-09T10:25:35;25.40;69.60
21612;DHT22;47005;52.292;13.452;2023-07-09T10:30:52;25.50;68.20
21612;DHT22;47005;52.292;13.452;2023-07-09T10:39:14;25.60;68.70
21612;DHT22;47005;52.292;13.452;2023-07-09T10:41:42;25.60;67.40
21612;DHT22;47005;52.292;13.452;2023-07-09T10:44:19;25.70;66.10
21612;DHT22;47005;52.292;13.452;2023-07-09T10:46:50;25.70;68.60
21612;DHT22;47005;52.292;13.452;2023-07-09T10:49:19;25.80;68.70
21612;DHT22;47005;52.292;13.452;2023-07-09T10:51:53;25.80;69.00
21612;DHT22;47005;52.292;13.452;2023-07-09T10:54:39;25.90;68.90
21612;DHT22;47005;52.292;13.452;2023-07-09T10:57:14;25.90;67.30
21612;DHT22;47005;52.292;13.452;2023-07-09T10:59:42;25.90;67.00
21612;DHT22;47005;52.292;13.452;2023-07-09T11:02:33;25.90;66.70
21612;DHT22;47005;52.292;13.452;2023-07-09T11:05:05;26.00;66.40
21612;DHT22;47005;52.292;13.452;2023-07-09T11:07:34;26.00;66.20
21612;DHT22;47005;52.292;13.452;2023-07-09T11:10:05;26.10;66.60
21612;DHT22;47005;52.292;13.452;2023-07-09T11:12:42;26.20;66.30
21612;DHT22;47005;52.292;13.452;2023-07-09T11:15:15;26.20;66.80
21612;DHT22;47005;52.292;13.452;2023-07-09T11:17:47;26.30;65.20
21612;DHT22;47005;52.292;13.452;2023-07-09T11:20:24;26.30;64.80
21612;DHT22;47005;52.292;13.452;2023-07-09T11:23:18;26.30;64.80
21612;DHT22;47005;52.292;13.452;2023-07-09T11:25:47;26.40;64.80
21612;DHT22;47005;52.292;13.452;2023-07-09T11:28:12;26.40;64.40
21612;DHT22;47005;52.292;13.452;2023-07-09T11:33:27;26.50;65.90
21612;DHT22;47005;52.292;13.452;2023-07-09T11:36:14;26.50;65.20
21612;DHT22;47005;52.292;13.452;2023-07-09T11:38:45;26.60;61.90
21612;DHT22;47005;52.292;13.452;2023-07-09T11:43:50;26.70;62.80
21612;DHT22;47005;52.292;13.452;2023-07-09T11:46:25;26.70;61.70
21612;DHT22;47005;52.292;13.452;2023-07-09T11:48:54;26.80;62.40
21612;DHT22;47005;52.292;13.452;2023-07-09T11:51:27;26.90;61.30
21612;DHT22;47005;52.292;13.452;2023-07-09T11:53:55;27.00;60.90
21612;DHT22;47005;52.292;13.452;2023-07-09T11:56:23;27.10;62.20
21612;DHT22;47005;52.292;13.452;2023-07-09T11:58:54;27.10;62.10
21612;DHT22;47005;52.292;13.452;2023-07-09T12:01:27;27.20;62.60
21612;DHT22;47005;52.292;13.452;2023-07-09T12:03:56;27.40;62.00
21612;DHT22;47005;52.292;13.452;2023-07-09T12:06:28;27.50;62.20
21612;DHT22;47005;52.292;13.452;2023-07-09T12:08:54;27.50;60.60
21612;DHT22;47005;52.292;13.452;2023-07-09T12:11:21;27.60;60.20
21612;DHT22;47005;52.292;13.452;2023-07-09T12:13:47;27.70;60.00
21612;DHT22;47005;52.292;13.452;2023-07-09T12:18:50;27.80;58.10
21612;DHT22;47005;52.292;13.452;2023-07-09T12:21:15;27.80;59.40
21612;DHT22;47005;52.292;13.452;2023-07-09T12:23:41;27.80;59.50
21612;DHT22;47005;52.292;13.452;2023-07-09T12:26:14;27.90;58.90
21612;DHT22;47005;52.292;13.452;2023-07-09T12:28:40;28.00;58.70
21612;DHT22;47005;52.292;13.452;2023-07-09T12:31:12;28.10;58.40
21612;DHT22;47005;52.292;13.452;2023-07-09T12:33:38;28.30;59.30
21612;DHT22;47005;52.292;13.452;2023-07-09T12:36:11;28.40;59.30
21612;DHT22;47005;52.292;13.452;2023-07-09T12:38:43;28.50;59.30
21612;DHT22;47005;52.292;13.452;2023-07-09T12:41:30;28.60;58.60
21612;DHT22;47005;52.292;13.452;2023-07-09T12:43:58;28.60;57.50
21612;DHT22;47005;52.292;13.452;2023-07-09T12:46:24;28.60;57.70
21612;DHT22;47005;52.292;13.452;2023-07-09T12:48:50;28.60;56.30
21612;DHT22;47005;52.292;13.452;2023-07-09T12:51:22;28.60;56.60
21612;DHT22;47005;52.292;13.452;2023-07-09T12:56:35;28.50;58.80
21612;DHT22;47005;52.292;13.452;2023-07-09T12:59:02;28.50;58.70
21612;DHT22;47005;52.292;13.452;2023-07-09T13:01:37;28.50;58.00
21612;DHT22;47005;52.292;13.452;2023-07-09T13:04:03;28.40;56.10
21612;DHT22;47005;52.292;13.452;2023-07-09T13:06:35;28.40;56.10
21612;DHT22;47005;52.292;13.452;2023-07-09T13:09:03;28.40;56.80
21612;DHT22;47005;52.292;13.452;2023-07-09T13:11:36;28.40;57.20
21612;DHT22;47005;52.292;13.452;2023-07-09T13:14:04;28.50;56.90
21612;DHT22;47005;52.292;13.452;2023-07-09T13:16:30;28.60;57.30
21612;DHT22;47005;52.292;13.452;2023-07-09T13:19:03;28.60;57.50
21612;DHT22;47005;52.292;13.452;2023-07-09T13:21:28;28.70;58.50
21612;DHT22;47005;52.292;13.452;2023-07-09T13:23:55;28.80;58.80
21612;DHT22;47005;52.292;13.452;2023-07-09T13:26:20;28.80;60.10
21612;DHT22;47005;52.292;13.452;2023-07-09T13:28:46;28.80;60.90
21612;DHT22;47005;52.292;13.452;2023-07-09T13:31:18;28.90;61.10
21612;DHT22;47005;52.292;13.452;2023-07-09T13:33:50;28.90;60.40
21612;DHT22;47005;52.292;13.452;2023-07-09T13:36:16;28.90;60.70
21612;DHT22;47005;52.292;13.452;2023-07-09T13:38:41;29.00;61.30
21612;DHT22;47005;52.292;13.452;2023-07-09T13:41:13;29.00;59.60
21612;DHT22;47005;52.292;13.452;2023-07-09T13:43:43;29.00;59.00
21612;DHT22;47005;52.292;13.452;2023-07-09T13:46:09;28.90;58.50
21612;DHT22;47005;52.292;13.452;2023-07-09T13:48:37;28.90;58.40
21612;DHT22;47005;52.292;13.452;2023-07-09T13:51:20;28.90;57.80
21612;DHT22;47005;52.292;13.452;2023-07-09T13:53:49;28.90;58.50
21612;DHT22;47005;52.292;13.452;2023-07-09T13:56:15;28.80;57.20
21612;DHT22;47005;52.292;13.452;2023-07-09T13:58:41;28.80;57.40
21612;DHT22;47005;52.292;13.452;2023-07-09T14:01:13;28.80;57.00
21612;DHT22;47005;52.292;13.452;2023-07-09T14:03:39;28.80;58.90
21612;DHT22;47005;52.292;13.452;2023-07-09T14:06:05;28.70;59.00
21612;DHT22;47005;52.292;13.452;2023-07-09T14:08:32;28.70;58.70
21612;DHT22;47005;52.292;13.452;2023-07-09T14:10:58;28.70;59.20
21612;DHT22;47005;52.292;13.452;2023-07-09T14:13:28;28.60;59.50
21612;DHT22;47005;52.292;13.452;2023-07-09T14:15:54;28.60;59.50
21612;DHT22;47005;52.292;13.452;2023-07-09T14:18:21;28.60;59.20
21612;DHT22;47005;52.292;13.452;2023-07-09T14:20:49;28.60;59.70
21612;DHT22;47005;52.292;13.452;2023-07-09T14:23:17;28.50;59.70
21612;DHT22;47005;52.292;13.452;2023-07-09T14:25:44;28.50;59.80
21612;DHT22;47005;52.292;13.452;2023-07-09T14:28:20;28.50;60.00
21612;DHT22;47005;52.292;13.452;2023-07-09T14:30:48;28.50;61.60
21612;DHT22;47005;52.292;13.452;2023-07-09T14:33:16;28.50;61.40
21612;DHT22;47005;52.292;13.452;2023-07-09T14:35:43;28.50;62.30
21612;DHT22;47005;52.292;13.452;2023-07-09T14:38:29;28.50;62.10
21612;DHT22;47005;52.292;13.452;2023-07-09T14:40:56;28.50;60.90
21612;DHT22;47005;52.292;13.452;2023-07-09T14:43:23;28.40;61.00
21612;DHT22;47005;52.292;13.452;2023-07-09T14:45:49;28.40;60.70
21612;DHT22;47005;52.292;13.452;2023-07-09T14:48:19;28.40;58.70
21612;DHT22;47005;52.292;13.452;2023-07-09T14:50:46;28.40;57.00
21612;DHT22;47005;52.292;13.452;2023-07-09T14:55:44;28.40;57.50
21612;DHT22;47005;52.292;13.452;2023-07-09T14:58:16;28.40;57.70
21612;DHT22;47005;52.292;13.452;2023-07-09T15:00:43;28.50;57.10
21612;DHT22;47005;52.292;13.452;2023-07-09T15:03:11;28.50;56.10
21612;DHT22;47005;52.292;13.452;2023-07-09T15:05:36;28.50;57.50
21612;DHT22;47005;52.292;13.452;2023-07-09T15:08:17;28.50;56.50
21612;DHT22;47005;52.292;13.452;2023-07-09T15:10:45;28.50;57.70
21612;DHT22;47005;52.292;13.452;2023-07-09T15:13:29;28.50;57.00
21612;DHT22;47005;52.292;13.452;2023-07-09T15:15:55;28.50;57.10
21612;DHT22;47005;52.292;13.452;2023-07-09T15:18:20;28.50;57.10
21612;DHT22;47005;52.292;13.452;2023-07-09T15:20:58;28.50;57.10
21612;DHT22;47005;52.292;13.452;2023-07-09T15:23:24;28.60;61.00
21612;DHT22;47005;52.292;13.452;2023-07-09T15:25:52;28.60;60.80
21612;DHT22;47005;52.292;13.452;2023-07-09T15:28:17;28.60;60.40
21612;DHT22;47005;52.292;13.452;2023-07-09T15:30:43;28.60;59.10
21612;DHT22;47005;52.292;13.452;2023-07-09T15:33:20;28.60;58.70
21612;DHT22;47005;52.292;13.452;2023-07-09T15:35:48;28.60;60.00
21612;DHT22;47005;52.292;13.452;2023-07-09T15:40:45;28.50;59.90
21612;DHT22;47005;52.292;13.452;2023-07-09T15:43:11;28.50;59.80
21612;DHT22;47005;52.292;13.452;2023-07-09T15:45:44;28.60;60.30
21612;DHT22;47005;52.292;13.452;2023-07-09T15:48:36;28.60;59.80
21612;DHT22;47005;52.292;13.452;2023-07-09T15:51:04;28.60;59.70
21612;DHT22;47005;52.292;13.452;2023-07-09T15:53:31;28.60;59.80
21612;DHT22;47005;52.292;13.452;2023-07-09T15:55:59;28.70;59.60
21612;DHT22;47005;52.292;13.452;2023-07-09T15:58:30;28.70;59.40